Terminal Aerodrome Forecast
Issued by NWS

Home | Current Version | Previous Version | Text Only | Print | Product List | Glossary On
Versions: 1 2 3 4 5 6 7 8 9 10 11 12 13 14 15 16 17 18 19 20 21 22 23 24 25 26 27 28 29
000
FTUS46 KEKA 030536
TAFCEC
TAF
KCEC 030536Z 0306/0406 35003KT 6SM BR SCT009 OVC015
     FM030900 VRB03KT 5SM BR SCT004 BKN007 OVC012
     FM031200 00000KT 2SM BR OVC004
     FM031600 22005KT 5SM BR SCT004 OVC007
     FM032000 24006KT P6SM SCT007 BKN012 BKN100
     FM032200 28006KT P6SM SCT015 BKN100
     FM040300 22004KT 6SM BR SCT009 BKN015 BKN100=

USA.gov is the U.S. government's official web portal to all federal, state and local government web resources and services.